Terminal Aerodrome Forecast
Issued by NWS Shreveport, LA

Home | Current Version | Previous Version | Text Only | Print | Product List | Glossary On
Versions: 1 2 3 4 5 6 7 8 9 10 11 12 13
562
FTUS44 KSHV 241802 RRA
TAFGGG
TAF
KGGG 241802Z 2418/2518 19013G20KT P6SM SCT270
     FM250100 18010KT P6SM SCT025 BKN270
     FM250300 18010KT P6SM OVC025
      TEMPO 2507/2509 5SM BR OVC008
     FM250900 23010KT 3SM -RA BR OVC005
     FM251300 24005KT P6SM SCT008 BKN010
     FM251500 31006KT P6SM SCT040=

USA.gov is the U.S. government's official web portal to all federal, state and local government web resources and services.